Time;durP1;ratioP1;P1;durP2;ratioP2;P2;SDS_P1;SDS_P2;PMS_P1;PMS_P2;Temp;Humidity;BMP_temperature;BMP_pressure;BME280_temperature;BME280_humidity;BME280_pressure;Samples;Min_cycle;Max_cycle;Signal;HPM_P1;HPM_P2
2022/12/04 00:01:32;;;;;;;4.10;1.02;;;23.70;99.90;;;;;;5071874;28;20193;-83
2022/12/04 00:04:03;;;;;;;1.70;0.50;;;23.70;99.90;;;;;;5072778;28;20558;-82
2022/12/04 00:06:37;;;;;;;1.83;0.60;;;23.90;99.90;;;;;;5061767;28;20205;-82
2022/12/04 00:09:08;;;;;;;3.72;0.60;;;23.90;99.90;;;;;;5072714;28;20199;-83
2022/12/04 00:11:39;;;;;;;0.98;0.40;;;23.90;99.90;;;;;;5074699;28;20200;-82
2022/12/04 00:14:12;;;;;;;2.05;0.50;;;23.80;99.90;;;;;;5060714;28;20234;-81
2022/12/04 00:16:44;;;;;;;1.77;0.50;;;23.70;99.90;;;;;;5068510;28;20192;-81
2022/12/04 00:19:15;;;;;;;5.28;0.88;;;23.80;99.90;;;;;;5074069;28;20202;-81
2022/12/04 00:21:46;;;;;;;3.92;0.70;;;24.00;99.90;;;;;;5053976;28;20200;-81
2022/12/04 00:24:17;;;;;;;3.85;0.73;;;24.10;99.90;;;;;;5056500;28;20211;-81
2022/12/04 00:26:49;;;;;;;4.13;0.88;;;24.10;99.90;;;;;;5067180;28;20253;-82
2022/12/04 00:29:21;;;;;;;2.38;0.70;;;24.10;99.90;;;;;;5061509;28;20677;-82
2022/12/04 00:31:52;;;;;;;1.33;0.70;;;23.90;99.90;;;;;;5072226;28;20208;-82
2022/12/04 00:34:23;;;;;;;4.28;0.80;;;24.20;99.90;;;;;;5065477;28;20230;-82
2022/12/04 00:36:54;;;;;;;4.07;0.70;;;24.40;99.90;;;;;;5065236;28;20211;-82
2022/12/04 00:39:25;;;;;;;2.13;0.80;;;24.80;99.90;;;;;;5058754;28;20196;-82
2022/12/04 00:41:56;;;;;;;3.15;0.70;;;25.10;99.90;;;;;;5069219;28;20204;-83
2022/12/04 00:44:29;;;;;;;2.65;0.68;;;25.50;99.90;;;;;;5072840;28;20202;-83
2022/12/04 00:47:00;;;;;;;5.45;0.60;;;25.90;99.90;;;;;;5061681;28;20197;-82
2022/12/04 00:49:31;;;;;;;2.58;0.70;;;26.20;99.90;;;;;;5069736;28;20200;-83
2022/12/04 00:52:02;;;;;;;2.08;0.63;;;26.40;99.90;;;;;;5072684;28;20920;-84
2022/12/04 00:54:34;;;;;;;2.85;0.70;;;26.60;99.90;;;;;;5073106;28;20753;-82
2022/12/04 00:57:04;;;;;;;3.45;0.95;;;26.70;99.90;;;;;;5058279;28;20260;-82
2022/12/04 00:59:38;;;;;;;3.15;1.15;;;26.70;99.90;;;;;;5066993;28;20222;-82
2022/12/04 01:02:09;;;;;;;1.63;0.70;;;26.80;99.90;;;;;;5064681;28;20266;-83
2022/12/04 01:04:40;;;;;;;2.95;0.80;;;26.90;99.90;;;;;;5054899;28;20219;-83
2022/12/04 01:07:14;;;;;;;2.65;0.65;;;26.80;99.90;;;;;;5076442;28;20651;-83
2022/12/04 01:09:45;;;;;;;3.47;0.80;;;26.90;99.90;;;;;;5058701;28;20215;-83
2022/12/04 01:12:16;;;;;;;2.40;0.90;;;27.10;99.90;;;;;;5061192;28;20678;-83
2022/12/04 01:14:50;;;;;;;1.95;0.70;;;27.20;99.90;;;;;;5071969;28;20689;-84
2022/12/04 01:17:20;;;;;;;1.70;0.60;;;27.40;99.90;;;;;;5075856;28;20258;-83
2022/12/04 01:19:51;;;;;;;5.45;0.90;;;27.40;99.90;;;;;;5076086;28;20192;-80
2022/12/04 01:22:22;;;;;;;1.63;0.80;;;27.30;99.90;;;;;;5072334;28;20220;-84
2022/12/04 01:24:57;;;;;;;2.03;0.60;;;27.50;99.90;;;;;;5065688;28;20221;-83
2022/12/04 01:27:27;;;;;;;2.72;0.80;;;27.60;99.90;;;;;;5064872;28;20199;-83
2022/12/04 01:30:00;;;;;;;2.40;0.65;;;27.60;99.90;;;;;;5063878;28;20647;-83
2022/12/04 01:32:32;;;;;;;4.22;0.80;;;27.80;99.90;;;;;;5066218;28;20192;-83
2022/12/04 01:35:03;;;;;;;6.40;0.90;;;27.80;99.90;;;;;;5069947;28;20196;-85
2022/12/04 01:37:34;;;;;;;2.97;0.80;;;27.70;99.90;;;;;;5076981;28;20207;-83
2022/12/04 01:40:05;;;;;;;5.28;0.80;;;27.70;99.90;;;;;;5078036;28;20236;-82
2022/12/04 01:42:36;;;;;;;3.70;0.70;;;27.70;99.90;;;;;;5070725;28;20227;-84
2022/12/04 01:45:43;;;;;;;1.92;0.70;;;27.70;99.90;;;;;;5071830;28;20203;-83
2022/12/04 01:48:19;;;;;;;3.05;0.85;;;27.70;99.90;;;;;;5022867;28;20232;-83
2022/12/04 01:50:53;;;;;;;2.80;0.57;;;27.80;99.90;;;;;;5027468;28;20672;-82
2022/12/04 01:53:24;;;;;;;24.73;2.10;;;27.80;99.90;;;;;;5050627;28;20278;-83
2022/12/04 01:55:56;;;;;;;2.58;0.90;;;27.80;99.90;;;;;;5061321;28;20196;-82
2022/12/04 01:58:32;;;;;;;6.43;1.02;;;27.70;99.90;;;;;;5081732;28;20206;-82
2022/12/04 02:01:08;;;;;;;3.20;0.95;;;27.60;99.90;;;;;;5076114;28;20203;-83
2022/12/04 02:03:40;;;;;;;1.45;0.70;;;27.60;99.90;;;;;;5069478;28;20269;-82
2022/12/04 02:06:15;;;;;;;4.13;0.90;;;27.60;99.90;;;;;;5070603;28;20748;-82
2022/12/04 02:08:46;;;;;;;3.70;0.90;;;27.40;99.90;;;;;;5066762;28;20206;-82
2022/12/04 02:11:27;;;;;;;1.48;0.50;;;27.50;99.90;;;;;;5070186;28;20575;-82
2022/12/04 02:14:09;;;;;;;4.15;0.70;;;27.50;99.90;;;;;;5060762;28;20666;-82
2022/12/04 02:16:48;;;;;;;1.60;0.60;;;27.20;99.90;;;;;;5069634;28;20192;-82
2022/12/04 02:19:50;;;;;;;3.03;0.73;;;27.30;99.90;;;;;;5073922;28;20210;-83
2022/12/04 02:22:32;;;;;;;3.72;0.65;;;27.40;99.90;;;;;;5069543;28;20191;-83
2022/12/04 02:25:13;;;;;;;4.03;0.80;;;27.40;99.90;;;;;;5073482;28;20668;-82
2022/12/04 02:28:05;;;;;;;3.38;0.65;;;27.20;99.90;;;;;;5072011;28;20274;-83
2022/12/04 02:30:41;;;;;;;0.95;0.30;;;27.30;99.90;;;;;;5070856;28;20227;-82
2022/12/04 02:33:20;;;;;;;2.28;0.70;;;27.30;99.90;;;;;;5068286;28;20231;-83
2022/12/04 02:35:58;;;;;;;1.15;0.50;;;27.40;99.90;;;;;;5061430;28;20192;-83
2022/12/04 02:38:33;;;;;;;2.97;0.60;;;27.10;99.90;;;;;;5069080;28;20195;-82
2022/12/04 02:41:11;;;;;;;2.70;0.70;;;27.00;99.90;;;;;;5068066;28;20199;-80
2022/12/04 02:43:48;;;;;;;2.40;0.65;;;27.10;99.90;;;;;;5071051;28;20228;-82
2022/12/04 02:46:23;;;;;;;2.42;0.70;;;27.30;99.90;;;;;;5048711;28;20303;-83
2022/12/04 02:48:59;;;;;;;4.03;0.73;;;27.30;99.90;;;;;;5065545;28;20290;-82
2022/12/04 02:51:33;;;;;;;2.90;0.65;;;27.20;99.90;;;;;;5068243;28;20198;-83
2022/12/04 02:54:12;;;;;;;2.08;0.60;;;27.30;99.90;;;;;;5058111;28;20269;-81
2022/12/04 02:56:46;;;;;;;3.53;0.70;;;27.30;99.90;;;;;;5057626;28;20228;-80
2022/12/04 02:59:22;;;;;;;3.45;0.60;;;27.50;99.90;;;;;;5067921;28;20206;-81
2022/12/04 03:01:57;;;;;;;3.58;0.60;;;27.80;99.90;;;;;;5069133;28;20192;-81
2022/12/04 03:04:31;;;;;;;2.03;0.70;;;28.10;99.90;;;;;;5068732;28;20227;-80
2022/12/04 03:07:06;;;;;;;1.88;0.68;;;28.20;99.90;;;;;;5068489;28;20196;-81
2022/12/04 03:09:40;;;;;;;1.83;0.57;;;28.40;99.90;;;;;;5058658;28;20199;-81
2022/12/04 03:12:16;;;;;;;1.67;0.50;;;28.20;98.80;;;;;;5068189;28;20196;-82
2022/12/04 03:14:57;;;;;;;5.05;0.60;;;28.10;99.10;;;;;;5060903;28;20210;-81
2022/12/04 03:17:34;;;;;;;2.90;0.70;;;28.30;99.00;;;;;;5069369;28;20206;-81
2022/12/04 03:20:10;;;;;;;2.72;0.50;;;28.30;99.60;;;;;;5062445;28;20210;-81
2022/12/04 03:22:43;;;;;;;3.17;0.50;;;28.10;98.60;;;;;;5072079;28;20205;-80
2022/12/04 03:25:15;;;;;;;1.42;0.50;;;28.10;98.70;;;;;;5066925;28;20222;-80
2022/12/04 03:27:53;;;;;;;3.47;0.90;;;28.30;96.90;;;;;;5067308;28;20287;-81
2022/12/04 03:30:26;;;;;;;3.17;0.63;;;28.50;97.40;;;;;;5065839;28;20242;-81
2022/12/04 03:33:01;;;;;;;3.08;0.65;;;28.50;96.50;;;;;;5075957;28;20208;-81
2022/12/04 03:35:39;;;;;;;2.95;0.60;;;28.40;97.00;;;;;;5072643;28;20530;-82
2022/12/04 03:38:18;;;;;;;2.28;0.70;;;28.50;96.50;;;;;;5069399;28;20203;-82
2022/12/04 03:40:53;;;;;;;2.72;0.45;;;28.50;97.00;;;;;;5094466;28;20256;-82
2022/12/04 03:43:31;;;;;;;3.72;0.80;;;28.60;95.80;;;;;;5076747;28;20223;-84
2022/12/04 03:46:11;;;;;;;3.00;0.60;;;28.60;96.00;;;;;;5076136;28;20650;-82
2022/12/04 03:48:47;;;;;;;2.40;0.60;;;28.40;94.40;;;;;;5076100;28;20207;-82
2022/12/04 03:51:21;;;;;;;2.00;0.60;;;28.40;92.90;;;;;;5075840;28;20191;-82
2022/12/04 03:53:56;;;;;;;2.03;0.52;;;28.40;95.10;;;;;;5062953;28;20197;-83
2022/12/04 03:56:32;;;;;;;2.97;0.60;;;28.30;95.60;;;;;;5081985;28;20291;-82
2022/12/04 03:59:08;;;;;;;1.10;0.45;;;28.30;92.70;;;;;;5081600;28;20198;-83
2022/12/04 04:01:43;;;;;;;2.20;0.65;;;28.20;93.50;;;;;;5077379;28;20202;-82
2022/12/04 04:04:18;;;;;;;2.28;0.70;;;28.30;93.60;;;;;;5075067;28;20238;-82
2022/12/04 04:06:54;;;;;;;2.92;0.50;;;28.40;93.80;;;;;;5079461;28;20213;-82
2022/12/04 04:09:27;;;;;;;3.13;0.60;;;28.20;94.40;;;;;;5085177;28;20722;-83
2022/12/04 04:12:04;;;;;;;3.35;0.63;;;28.20;94.00;;;;;;5076474;28;20198;-82
2022/12/04 04:26:04;;;;;;;1.45;0.47;;;28.20;96.40;;;;;;5094075;28;20226;-81
2022/12/04 04:28:37;;;;;;;1.13;0.40;;;28.30;96.50;;;;;;5070099;28;20637;-82
2022/12/04 04:31:18;;;;;;;3.33;0.70;;;28.30;95.70;;;;;;5090025;28;20213;-83
2022/12/04 04:34:00;;;;;;;2.63;0.68;;;28.30;94.30;;;;;;5075116;28;20202;-82
2022/12/04 04:36:47;;;;;;;7.03;1.00;;;28.20;95.00;;;;;;5075076;28;20203;-82
2022/12/04 04:39:25;;;;;;;2.85;0.70;;;28.20;96.20;;;;;;5060533;28;20198;-83
2022/12/04 04:41:59;;;;;;;2.88;0.60;;;28.20;96.50;;;;;;5076774;28;20221;-83
2022/12/04 04:44:36;;;;;;;4.45;0.90;;;28.30;97.70;;;;;;5068149;28;20224;-82
2022/12/04 04:47:11;;;;;;;3.10;0.50;;;28.40;98.00;;;;;;5073404;28;20275;-83
2022/12/04 04:49:46;;;;;;;1.48;0.50;;;28.30;98.60;;;;;;5072872;28;20736;-81
2022/12/04 04:52:19;;;;;;;3.25;0.88;;;28.30;99.90;;;;;;5078679;28;20609;-82
2022/12/04 04:54:50;;;;;;;3.28;0.60;;;28.60;99.70;;;;;;5072441;28;20210;-82
2022/12/04 04:57:30;;;;;;;3.10;0.63;;;28.50;99.40;;;;;;5073636;28;20732;-83
2022/12/04 05:00:01;;;;;;;0.98;0.32;;;28.70;98.20;;;;;;5066142;28;20658;-82
2022/12/04 05:02:31;;;;;;;4.43;0.70;;;28.80;97.90;;;;;;5085262;28;20567;-82
2022/12/04 05:05:04;;;;;;;2.03;0.73;;;29.00;98.00;;;;;;5071831;28;20227;-80
2022/12/04 05:07:35;;;;;;;2.65;0.80;;;29.10;97.90;;;;;;5070721;28;20192;-81
2022/12/04 05:10:06;;;;;;;4.65;0.80;;;29.20;97.50;;;;;;5054940;28;20228;-80
2022/12/04 05:12:39;;;;;;;2.03;0.55;;;29.30;98.30;;;;;;5061096;28;20200;-80
2022/12/04 05:15:11;;;;;;;4.28;0.80;;;29.50;97.10;;;;;;5072133;28;20208;-82
2022/12/04 05:17:42;;;;;;;2.10;0.63;;;29.30;95.60;;;;;;5073367;28;20196;-82
2022/12/04 05:20:15;;;;;;;3.03;1.00;;;29.10;96.70;;;;;;5076406;28;20192;-82
2022/12/04 05:22:46;;;;;;;4.03;0.75;;;28.70;97.00;;;;;;5073571;28;20605;-82
2022/12/04 05:25:17;;;;;;;5.18;0.70;;;28.50;97.80;;;;;;5070840;28;20331;-83
2022/12/04 05:27:48;;;;;;;1.10;0.40;;;28.80;98.70;;;;;;5054052;28;20609;-82
2022/12/04 05:30:19;;;;;;;2.60;0.55;;;29.20;98.10;;;;;;5071224;28;20286;-82
2022/12/04 05:32:50;;;;;;;5.88;0.75;;;29.60;95.80;;;;;;5092816;28;20573;-82
2022/12/04 05:35:24;;;;;;;3.00;0.57;;;29.90;94.80;;;;;;5069665;28;20202;-84
2022/12/04 05:37:55;;;;;;;2.17;0.45;;;30.20;94.40;;;;;;5074220;28;20287;-83
2022/12/04 05:40:26;;;;;;;2.05;0.60;;;30.70;94.20;;;;;;5080641;28;20252;-83
2022/12/04 05:42:57;;;;;;;3.70;0.70;;;30.50;92.10;;;;;;5078173;28;20647;-83
2022/12/04 05:45:28;;;;;;;2.60;0.57;;;30.80;92.10;;;;;;5065475;28;20220;-83
2022/12/04 05:47:59;;;;;;;1.35;0.50;;;31.00;91.00;;;;;;5072433;28;20274;-83
2022/12/04 05:50:33;;;;;;;2.38;0.60;;;30.80;90.30;;;;;;5071722;28;20192;-82
2022/12/04 05:53:04;;;;;;;3.65;0.50;;;31.00;90.10;;;;;;5070807;28;20196;-82
2022/12/04 05:55:35;;;;;;;1.65;0.47;;;31.10;88.00;;;;;;5059592;28;20624;-82
2022/12/04 05:58:06;;;;;;;2.15;0.63;;;31.00;85.10;;;;;;5069049;28;20231;-82
2022/12/04 06:00:37;;;;;;;2.88;0.80;;;31.20;85.80;;;;;;5065927;28;20274;-82
2022/12/04 06:03:08;;;;;;;6.43;0.80;;;30.70;89.80;;;;;;5074358;28;20781;-82
2022/12/04 06:05:43;;;;;;;1.77;0.68;;;30.80;90.10;;;;;;5090297;28;20708;-82
2022/12/04 06:08:15;;;;;;;2.13;0.65;;;30.80;87.10;;;;;;5080952;28;20196;-81
2022/12/04 06:10:46;;;;;;;1.90;0.52;;;30.50;88.30;;;;;;5067288;28;20196;-81
2022/12/04 06:13:18;;;;;;;2.22;0.60;;;30.50;87.10;;;;;;5069150;28;20722;-82
2022/12/04 06:15:52;;;;;;;2.25;0.43;;;30.40;88.00;;;;;;5071020;28;20192;-82
2022/12/04 06:18:22;;;;;;;3.75;0.60;;;30.40;88.50;;;;;;5071092;28;20667;-81
2022/12/04 06:20:58;;;;;;;3.47;0.60;;;30.30;88.80;;;;;;5073060;28;20199;-81
2022/12/04 06:23:30;;;;;;;2.20;0.60;;;30.40;89.70;;;;;;5069940;28;20227;-82
2022/12/04 06:26:06;;;;;;;2.97;0.57;;;30.60;89.70;;;;;;5075391;28;20199;-82
2022/12/04 06:28:39;;;;;;;2.35;0.60;;;30.60;90.70;;;;;;5074542;28;20196;-82
2022/12/04 06:31:12;;;;;;;3.63;0.63;;;30.50;90.60;;;;;;5073746;28;20283;-82
2022/12/04 06:33:43;;;;;;;2.58;0.70;;;30.80;90.80;;;;;;5075872;28;20275;-83
2022/12/04 06:36:18;;;;;;;55.92;2.70;;;30.50;90.20;;;;;;5075270;28;20543;-83
2022/12/04 06:38:49;;;;;;;5.57;0.90;;;30.70;90.70;;;;;;5077773;28;20285;-83
2022/12/04 06:41:21;;;;;;;5.40;0.65;;;30.40;91.20;;;;;;5070399;28;20206;-82
2022/12/04 06:43:53;;;;;;;4.22;0.80;;;31.00;90.30;;;;;;5069618;28;20238;-83
2022/12/04 06:46:24;;;;;;;2.60;0.50;;;31.30;87.80;;;;;;5069489;28;20200;-83
2022/12/04 06:48:56;;;;;;;3.42;0.70;;;31.60;87.80;;;;;;5072263;28;20222;-83
2022/12/04 06:51:30;;;;;;;0.98;0.45;;;31.50;87.20;;;;;;5074003;28;20196;-82
2022/12/04 06:54:01;;;;;;;1.92;0.63;;;31.80;85.50;;;;;;5072899;28;20519;-83
2022/12/04 06:56:33;;;;;;;1.98;0.60;;;32.30;84.20;;;;;;5071466;28;20228;-82
2022/12/04 06:59:05;;;;;;;3.60;0.65;;;32.00;83.60;;;;;;5072746;28;20638;-81
2022/12/04 07:01:36;;;;;;;4.45;1.02;;;31.90;83.70;;;;;;5068863;28;20191;-83
2022/12/04 07:04:07;;;;;;;2.78;0.70;;;31.90;85.30;;;;;;5057114;28;20224;-83
2022/12/04 07:06:41;;;;;;;5.15;0.75;;;32.10;84.60;;;;;;5068413;28;20192;-83
2022/12/04 07:09:15;;;;;;;3.33;0.77;;;31.70;85.00;;;;;;5065843;28;20202;-82
2022/12/04 07:11:47;;;;;;;2.50;0.57;;;31.80;84.20;;;;;;5066780;28;20650;-82
2022/12/04 07:14:17;;;;;;;2.92;0.57;;;31.50;85.30;;;;;;5065069;28;20196;-81
2022/12/04 07:16:51;;;;;;;3.53;0.73;;;31.70;84.60;;;;;;5069659;28;20200;-82
2022/12/04 07:19:22;;;;;;;3.88;0.70;;;31.70;83.90;;;;;;5069338;28;20570;-82
2022/12/04 07:21:54;;;;;;;3.67;0.93;;;31.70;84.90;;;;;;5061503;28;20314;-83
2022/12/04 07:24:25;;;;;;;3.08;0.80;;;31.90;83.00;;;;;;5071851;28;20219;-82
2022/12/04 07:26:56;;;;;;;3.10;0.70;;;31.80;83.60;;;;;;5058016;28;20215;-82
2022/12/04 07:29:27;;;;;;;8.25;1.00;;;31.70;84.00;;;;;;5065968;28;20222;-82
2022/12/04 07:31:58;;;;;;;2.60;0.80;;;31.80;83.60;;;;;;5070195;28;20229;-82
2022/12/04 07:34:29;;;;;;;2.70;0.88;;;31.80;82.10;;;;;;5071520;28;20199;-85
2022/12/04 07:37:02;;;;;;;3.63;1.00;;;31.90;82.40;;;;;;5071129;28;20192;-86
2022/12/04 07:39:32;;;;;;;2.03;0.88;;;32.00;81.30;;;;;;5071207;28;20200;-82
2022/12/04 07:42:04;;;;;;;2.25;0.80;;;32.00;81.50;;;;;;5070155;28;20200;-82
2022/12/04 07:44:34;;;;;;;2.90;0.70;;;31.80;79.70;;;;;;5067276;28;20220;-82
2022/12/04 07:47:09;;;;;;;2.28;0.50;;;31.20;79.80;;;;;;5070482;28;20202;-82
2022/12/04 07:49:40;;;;;;;2.00;0.60;;;31.10;79.80;;;;;;5065226;28;20252;-82
2022/12/04 07:52:18;;;;;;;4.10;0.60;;;31.00;79.90;;;;;;5068856;28;20717;-82
2022/12/04 07:54:50;;;;;;;3.45;0.90;;;30.40;82.10;;;;;;5070924;28;20212;-82
2022/12/04 07:57:22;;;;;;;2.88;0.70;;;29.90;83.90;;;;;;5088062;28;20237;-83
2022/12/04 07:59:53;;;;;;;2.20;0.75;;;29.00;85.60;;;;;;5077855;28;20734;-82
2022/12/04 08:02:23;;;;;;;1.58;0.50;;;28.70;87.60;;;;;;5084368;28;20260;-80
2022/12/04 08:04:54;;;;;;;3.67;0.90;;;28.10;87.20;;;;;;5089688;28;20235;-82
2022/12/04 08:07:27;;;;;;;2.30;0.55;;;27.40;89.00;;;;;;5089478;28;20264;-81
2022/12/04 08:09:59;;;;;;;2.25;0.70;;;26.90;91.30;;;;;;5084758;28;20212;-81
2022/12/04 08:12:30;;;;;;;2.08;0.73;;;26.60;93.90;;;;;;5068615;28;20223;-84
2022/12/04 08:15:00;;;;;;;2.88;0.75;;;26.30;94.70;;;;;;5070554;28;20576;-83
2022/12/04 08:17:31;;;;;;;2.78;0.70;;;25.90;96.50;;;;;;5070629;28;20573;-82
2022/12/04 08:20:02;;;;;;;3.95;1.02;;;25.70;98.20;;;;;;5063767;28;20547;-81
2022/12/04 08:22:36;;;;;;;2.33;0.88;;;25.50;99.20;;;;;;5100682;28;20199;-81
2022/12/04 08:25:09;;;;;;;2.13;0.70;;;25.40;98.70;;;;;;5097492;28;20223;-80
2022/12/04 08:27:45;;;;;;;2.20;0.90;;;25.10;98.60;;;;;;5076541;28;20212;-81
2022/12/04 08:30:16;;;;;;;3.35;0.95;;;25.00;98.70;;;;;;5076901;28;20286;-81
2022/12/04 08:32:47;;;;;;;2.17;1.05;;;24.80;99.90;;;;;;5059782;28;20203;-81
2022/12/04 08:35:18;;;;;;;4.03;1.80;;;24.60;99.90;;;;;;5066126;28;20193;-82
2022/12/04 08:37:52;;;;;;;1.63;0.90;;;24.50;99.90;;;;;;5075318;28;20610;-81
2022/12/04 08:40:23;;;;;;;2.75;0.77;;;24.40;99.90;;;;;;5076574;28;20261;-81
2022/12/04 08:42:54;;;;;;;3.88;0.85;;;24.20;99.90;;;;;;5076992;28;20203;-81
2022/12/04 08:45:25;;;;;;;5.85;1.00;;;23.90;99.90;;;;;;5074317;28;20302;-81
2022/12/04 08:47:56;;;;;;;2.95;0.80;;;23.80;99.90;;;;;;5078889;28;20191;-80
2022/12/04 08:50:27;;;;;;;5.55;1.00;;;23.80;99.90;;;;;;5083527;28;20643;-81
2022/12/04 08:53:00;;;;;;;2.60;0.80;;;23.70;99.90;;;;;;5059618;28;20200;-82
2022/12/04 08:55:31;;;;;;;4.43;1.20;;;23.70;99.90;;;;;;5080790;28;20241;-83
2022/12/04 08:58:03;;;;;;;4.80;1.10;;;23.60;99.90;;;;;;5092581;28;20776;-82
2022/12/04 09:00:33;;;;;;;4.22;1.10;;;23.60;99.90;;;;;;5072340;28;20211;-82
2022/12/04 09:03:04;;;;;;;2.28;0.73;;;23.60;99.90;;;;;;5060667;28;20731;-81
2022/12/04 09:05:35;;;;;;;5.00;0.95;;;23.50;99.90;;;;;;5072671;28;20236;-81
2022/12/04 09:08:08;;;;;;;4.18;1.05;;;23.50;99.90;;;;;;5082501;28;20254;-81
2022/12/04 09:10:54;;;;;;;5.30;1.15;;;23.50;99.90;;;;;;5067378;28;20243;-81
2022/12/04 09:13:24;;;;;;;1.95;0.77;;;23.40;99.90;;;;;;5087141;28;20264;-81
2022/12/04 09:15:58;;;;;;;3.25;1.10;;;23.40;99.90;;;;;;5082270;28;20199;-81
2022/12/04 09:18:29;;;;;;;6.93;1.15;;;23.30;99.90;;;;;;5080085;28;20218;-81
2022/12/04 09:21:06;;;;;;;4.25;1.00;;;23.30;99.90;;;;;;5084623;28;20203;-82
2022/12/04 09:23:40;;;;;;;2.00;0.73;;;23.30;99.90;;;;;;5085831;28;20206;-82
2022/12/04 09:26:23;;;;;;;8.40;1.05;;;23.20;99.90;;;;;;5075333;28;20219;-81
2022/12/04 09:28:55;;;;;;;2.45;0.90;;;23.10;99.90;;;;;;5081529;28;20192;-82
2022/12/04 09:31:26;;;;;;;4.57;1.00;;;23.00;99.90;;;;;;5078672;28;20200;-82
2022/12/04 09:33:59;;;;;;;3.45;1.05;;;23.00;99.90;;;;;;5059083;28;20188;-82
2022/12/04 09:36:30;;;;;;;5.75;0.98;;;23.00;99.90;;;;;;5072530;28;20234;-81
2022/12/04 09:39:03;;;;;;;4.90;0.95;;;22.90;99.90;;;;;;5062242;28;20206;-80
2022/12/04 09:42:21;;;;;;;3.78;0.90;;;22.90;99.90;;;;;;5071271;28;20210;-82
2022/12/04 09:44:59;;;;;;;2.75;1.05;;;23.00;99.90;;;;;;5063116;28;20224;-81
2022/12/04 09:47:33;;;;;;;4.43;0.90;;;22.90;99.90;;;;;;5076572;28;20199;-81
2022/12/04 09:50:08;;;;;;;1.90;0.80;;;22.90;99.90;;;;;;5077729;28;20226;-82
2022/12/04 09:52:52;;;;;;;3.58;1.10;;;22.80;99.90;;;;;;5078975;28;20279;-81
2022/12/04 09:55:29;;;;;;;4.10;1.20;;;22.80;99.90;;;;;;5085730;28;20250;-81
2022/12/04 09:58:01;;;;;;;8.73;1.50;;;22.80;99.90;;;;;;5097257;28;20234;-82
2022/12/04 10:00:33;;;;;;;4.78;1.20;;;22.80;99.90;;;;;;5073194;28;20273;-81
2022/12/04 10:03:10;;;;;;;4.85;1.30;;;22.80;99.90;;;;;;5075107;28;20215;-80
2022/12/04 10:05:55;;;;;;;5.75;1.10;;;22.70;99.90;;;;;;5079940;28;20322;-82
2022/12/04 10:08:28;;;;;;;2.25;1.00;;;22.60;99.90;;;;;;5099255;28;20184;-81
2022/12/04 10:11:11;;;;;;;5.47;2.30;;;22.50;99.90;;;;;;5076199;28;20192;-81
2022/12/04 10:14:17;;;;;;;5.68;2.60;;;22.60;99.90;;;;;;5076343;28;20242;-81
2022/12/04 10:17:14;;;;;;;6.10;2.00;;;22.60;99.90;;;;;;5067869;28;20629;-80
2022/12/04 10:19:51;;;;;;;6.65;4.20;;;22.50;99.90;;;;;;5075866;28;20631;-81
2022/12/04 10:22:27;;;;;;;5.97;3.03;;;22.50;99.90;;;;;;5077177;28;20263;-81
2022/12/04 10:25:00;;;;;;;7.32;4.20;;;22.50;99.90;;;;;;5079513;28;20650;-82
2022/12/04 10:27:38;;;;;;;9.15;4.75;;;22.50;99.90;;;;;;5077325;28;20659;-81
2022/12/04 10:30:20;;;;;;;7.53;4.80;;;22.60;99.90;;;;;;5056806;28;20279;-81
2022/12/04 10:32:57;;;;;;;8.75;6.35;;;22.60;99.90;;;;;;5064108;28;20192;-82
2022/12/04 10:35:31;;;;;;;6.25;5.22;;;22.60;99.90;;;;;;5069540;28;20188;-82
2022/12/04 10:38:05;;;;;;;8.77;5.43;;;22.60;99.90;;;;;;5068296;28;20203;-81
2022/12/04 10:40:41;;;;;;;9.60;5.20;;;22.60;99.90;;;;;;5056620;28;20200;-82
2022/12/04 10:43:22;;;;;;;9.73;6.75;;;22.60;99.90;;;;;;5070227;28;20202;-81
2022/12/04 10:45:53;;;;;;;8.45;4.93;;;22.50;99.90;;;;;;5079441;28;20652;-81
2022/12/04 10:48:31;;;;;;;10.15;4.57;;;22.50;99.90;;;;;;5080052;28;20236;-81
2022/12/04 10:51:08;;;;;;;9.25;4.20;;;22.50;99.90;;;;;;5084940;28;20238;-82
2022/12/04 10:53:40;;;;;;;7.80;4.10;;;22.50;99.90;;;;;;5109289;28;20195;-81
2022/12/04 10:59:16;;;;;;;11.07;4.40;;;22.50;99.90;;;;;;5070219;28;20199;-82
2022/12/04 11:01:48;;;;;;;4.82;3.08;;;22.40;99.90;;;;;;5072096;28;20204;-81
2022/12/04 11:04:27;;;;;;;6.15;3.50;;;22.40;99.90;;;;;;5080463;28;20244;-83
2022/12/04 11:07:05;;;;;;;8.32;4.80;;;22.40;99.90;;;;;;5076491;28;20254;-81
2022/12/04 11:09:36;;;;;;;12.30;6.75;;;22.30;99.90;;;;;;5068295;28;20196;-81
2022/12/04 11:12:18;;;;;;;11.00;7.05;;;22.20;99.90;;;;;;5071520;28;20207;-82
2022/12/04 11:15:01;;;;;;;11.98;6.80;;;22.30;99.90;;;;;;5076652;28;20275;-82
2022/12/04 11:17:32;;;;;;;11.27;6.57;;;22.30;99.90;;;;;;5068322;28;20616;-82
2022/12/04 11:20:06;;;;;;;11.88;6.32;;;22.30;99.90;;;;;;5077974;28;20196;-81
2022/12/04 11:22:49;;;;;;;13.95;6.03;;;22.30;99.90;;;;;;5080349;28;20650;-80
2022/12/04 11:25:22;;;;;;;12.05;5.85;;;22.40;99.90;;;;;;5072040;28;20737;-82
2022/12/04 11:27:57;;;;;;;17.35;6.88;;;22.40;99.90;;;;;;5074046;28;20284;-81
2022/12/04 11:30:35;;;;;;;11.50;6.53;;;22.30;99.90;;;;;;5076856;28;20709;-82
2022/12/04 11:33:09;;;;;;;9.55;5.72;;;22.20;99.90;;;;;;5056455;28;20196;-79
2022/12/04 11:35:41;;;;;;;13.02;6.43;;;22.20;99.90;;;;;;5055973;28;20207;-81
2022/12/04 11:38:17;;;;;;;11.32;5.70;;;22.20;99.90;;;;;;5072299;28;20268;-80
2022/12/04 11:41:25;;;;;;;6.88;4.60;;;22.30;99.90;;;;;;5074888;28;20286;-81
2022/12/04 11:43:58;;;;;;;7.47;4.78;;;22.30;99.90;;;;;;5053941;28;20238;-80
2022/12/04 11:46:32;;;;;;;8.75;3.75;;;22.20;99.90;;;;;;5067714;28;20254;-81
2022/12/04 11:49:05;;;;;;;7.15;3.70;;;22.20;99.90;;;;;;5074787;28;20205;-81
2022/12/04 11:51:49;;;;;;;6.22;2.97;;;22.20;99.90;;;;;;5102211;28;20212;-80
2022/12/04 11:54:36;;;;;;;6.03;2.85;;;22.20;99.90;;;;;;5084724;28;20407;-81
2022/12/04 11:57:17;;;;;;;7.88;2.63;;;22.20;99.90;;;;;;5087129;28;20720;-81
2022/12/04 12:00:04;;;;;;;7.40;2.30;;;22.20;99.90;;;;;;5079609;28;20259;-81
2022/12/04 12:02:51;;;;;;;6.75;2.00;;;22.20;99.90;;;;;;5062918;28;20203;-81
2022/12/04 12:05:56;;;;;;;3.85;1.30;;;22.20;99.90;;;;;;5060291;28;20220;-81
2022/12/04 12:08:41;;;;;;;6.72;1.88;;;22.10;99.90;;;;;;5059560;28;20268;-81
2022/12/04 12:11:22;;;;;;;5.25;1.40;;;22.10;99.90;;;;;;5076386;28;20221;-81
2022/12/04 12:14:02;;;;;;;7.15;1.33;;;22.20;99.90;;;;;;5081437;28;20208;-81
2022/12/04 12:16:41;;;;;;;5.68;1.40;;;22.20;99.90;;;;;;5085540;28;20230;-81
2022/12/04 12:19:32;;;;;;;5.25;1.25;;;22.20;99.90;;;;;;5094122;28;20279;-81
2022/12/04 12:22:12;;;;;;;6.07;1.25;;;22.20;99.90;;;;;;5091382;28;20223;-80
2022/12/04 12:24:54;;;;;;;7.88;1.30;;;22.20;99.90;;;;;;5087835;28;20199;-79
2022/12/04 12:27:39;;;;;;;6.65;1.45;;;22.20;99.90;;;;;;5071101;28;20309;-80
2022/12/04 12:30:16;;;;;;;5.88;1.20;;;22.20;99.90;;;;;;5058264;28;20650;-79
2022/12/04 12:33:02;;;;;;;8.13;1.38;;;22.20;99.90;;;;;;5079150;28;20196;-79
2022/12/04 12:35:40;;;;;;;4.38;1.25;;;22.10;99.90;;;;;;5079999;28;20200;-80
2022/12/04 12:38:16;;;;;;;8.00;1.58;;;22.10;99.90;;;;;;5059690;28;20540;-81
2022/12/04 12:40:51;;;;;;;5.85;1.20;;;22.00;99.90;;;;;;5058681;28;20200;-81
2022/12/04 12:43:29;;;;;;;6.63;1.33;;;22.00;99.90;;;;;;5074413;28;20198;-81
2022/12/04 12:46:06;;;;;;;5.95;1.23;;;22.10;99.90;;;;;;5069609;28;20223;-81
2022/12/04 12:48:45;;;;;;;3.38;1.15;;;22.10;99.90;;;;;;5072570;28;20195;-81
2022/12/04 12:51:32;;;;;;;4.85;1.52;;;22.00;99.90;;;;;;5068684;28;20203;-79
2022/12/04 12:54:13;;;;;;;4.45;1.17;;;21.90;99.90;;;;;;5073233;28;20261;-80
2022/12/04 12:56:49;;;;;;;6.72;1.33;;;21.90;99.90;;;;;;5070871;28;20289;-80
2022/12/04 12:59:22;;;;;;;5.65;1.25;;;21.90;99.90;;;;;;5071477;28;20195;-81
2022/12/04 13:02:00;;;;;;;5.57;1.10;;;21.80;99.90;;;;;;5073844;28;20226;-81
2022/12/04 13:04:39;;;;;;;6.05;1.38;;;21.80;99.90;;;;;;5098599;28;20221;-80
2022/12/04 13:07:30;;;;;;;4.70;1.10;;;21.80;99.90;;;;;;5060026;28;20224;-80
2022/12/04 13:10:08;;;;;;;5.47;1.40;;;21.80;99.90;;;;;;5069702;28;20196;-80
2022/12/04 13:12:46;;;;;;;5.63;1.30;;;21.70;99.90;;;;;;5072675;28;20195;-81
2022/12/04 13:15:18;;;;;;;4.65;1.08;;;21.70;99.90;;;;;;5074172;28;20231;-81
2022/12/04 13:17:52;;;;;;;8.23;1.55;;;21.70;99.90;;;;;;5072301;28;20202;-80
2022/12/04 13:20:26;;;;;;;5.53;1.00;;;21.70;99.90;;;;;;5073577;28;20192;-80
2022/12/04 13:23:18;;;;;;;5.38;1.25;;;21.70;99.90;;;;;;5070515;28;20192;-82
2022/12/04 13:25:59;;;;;;;5.75;1.20;;;21.70;99.90;;;;;;5059651;28;20283;-82
2022/12/04 13:28:42;;;;;;;4.07;1.23;;;21.60;99.90;;;;;;5067581;28;20286;-82
2022/12/04 13:31:23;;;;;;;3.92;1.10;;;21.60;99.90;;;;;;5074544;28;20541;-81
2022/12/04 13:34:12;;;;;;;6.22;1.20;;;21.60;99.90;;;;;;5072517;28;20273;-81
2022/12/04 13:37:10;;;;;;;4.65;1.17;;;21.60;99.90;;;;;;5059823;28;20197;-82
2022/12/04 13:40:26;;;;;;;3.92;1.05;;;21.60;99.90;;;;;;5055102;28;20243;-81
2022/12/04 13:43:16;;;;;;;3.83;1.00;;;21.60;99.90;;;;;;5052104;28;20197;-81